sensor_id;sensor_type;location;lat;lon;timestamp;P1;durP1;ratioP1;P2;durP2;ratioP2
3131;SDS011;62090;52.330;9.104;2023-06-26T00:01:33;13.70;;;10.17;;
3131;SDS011;62090;52.330;9.104;2023-06-26T00:04:03;18.27;;;10.90;;
3131;SDS011;62090;52.330;9.104;2023-06-26T00:06:34;20.23;;;11.10;;
3131;SDS011;62090;52.330;9.104;2023-06-26T00:09:05;12.27;;;9.70;;
3131;SDS011;62090;52.330;9.104;2023-06-26T00:11:34;18.93;;;10.23;;
3131;SDS011;62090;52.330;9.104;2023-06-26T00:14:04;21.13;;;11.37;;
3131;SDS011;62090;52.330;9.104;2023-06-26T00:16:36;19.50;;;10.17;;
3131;SDS011;62090;52.330;9.104;2023-06-26T00:19:06;15.87;;;10.13;;
3131;SDS011;62090;52.330;9.104;2023-06-26T00:21:36;13.87;;;10.33;;
3131;SDS011;62090;52.330;9.104;2023-06-26T00:24:06;15.83;;;9.47;;
3131;SDS011;62090;52.330;9.104;2023-06-26T00:26:36;18.03;;;10.43;;
3131;SDS011;62090;52.330;9.104;2023-06-26T00:29:06;14.80;;;9.43;;
3131;SDS011;62090;52.330;9.104;2023-06-26T00:31:38;12.90;;;9.90;;
3131;SDS011;62090;52.330;9.104;2023-06-26T00:34:08;11.33;;;9.00;;
3131;SDS011;62090;52.330;9.104;2023-06-26T00:36:38;14.20;;;8.47;;
3131;SDS011;62090;52.330;9.104;2023-06-26T00:39:10;24.00;;;9.27;;
3131;SDS011;62090;52.330;9.104;2023-06-26T00:41:40;11.53;;;9.07;;
3131;SDS011;62090;52.330;9.104;2023-06-26T00:44:10;13.30;;;9.57;;
3131;SDS011;62090;52.330;9.104;2023-06-26T00:46:43;11.23;;;9.33;;
3131;SDS011;62090;52.330;9.104;2023-06-26T00:49:12;13.97;;;8.60;;
3131;SDS011;62090;52.330;9.104;2023-06-26T00:51:43;12.10;;;8.57;;
3131;SDS011;62090;52.330;9.104;2023-06-26T00:54:13;12.67;;;9.87;;
3131;SDS011;62090;52.330;9.104;2023-06-26T00:56:47;12.30;;;8.43;;
3131;SDS011;62090;52.330;9.104;2023-06-26T00:59:17;13.03;;;9.07;;
3131;SDS011;62090;52.330;9.104;2023-06-26T01:01:50;13.50;;;9.07;;
3131;SDS011;62090;52.330;9.104;2023-06-26T01:04:20;10.40;;;9.13;;
3131;SDS011;62090;52.330;9.104;2023-06-26T01:06:54;17.00;;;10.33;;
3131;SDS011;62090;52.330;9.104;2023-06-26T01:09:24;17.23;;;8.80;;
3131;SDS011;62090;52.330;9.104;2023-06-26T01:11:55;14.70;;;9.00;;
3131;SDS011;62090;52.330;9.104;2023-06-26T01:14:25;16.80;;;9.90;;
3131;SDS011;62090;52.330;9.104;2023-06-26T01:16:57;10.70;;;8.70;;
3131;SDS011;62090;52.330;9.104;2023-06-26T01:19:30;13.03;;;8.37;;
3131;SDS011;62090;52.330;9.104;2023-06-26T01:22:07;13.20;;;7.70;;
3131;SDS011;62090;52.330;9.104;2023-06-26T01:24:54;10.03;;;8.83;;
3131;SDS011;62090;52.330;9.104;2023-06-26T01:27:33;15.33;;;7.87;;
3131;SDS011;62090;52.330;9.104;2023-06-26T01:30:04;12.00;;;8.87;;
3131;SDS011;62090;52.330;9.104;2023-06-26T01:32:36;9.67;;;7.90;;
3131;SDS011;62090;52.330;9.104;2023-06-26T01:35:07;12.10;;;7.67;;
3131;SDS011;62090;52.330;9.104;2023-06-26T01:37:38;13.03;;;7.97;;
3131;SDS011;62090;52.330;9.104;2023-06-26T01:40:09;12.77;;;8.50;;
3131;SDS011;62090;52.330;9.104;2023-06-26T01:42:42;9.37;;;7.57;;
3131;SDS011;62090;52.330;9.104;2023-06-26T01:45:13;14.23;;;8.20;;
3131;SDS011;62090;52.330;9.104;2023-06-26T01:47:50;10.30;;;7.30;;
3131;SDS011;62090;52.330;9.104;2023-06-26T01:50:22;11.90;;;7.03;;
3131;SDS011;62090;52.330;9.104;2023-06-26T01:52:59;12.43;;;7.60;;
3131;SDS011;62090;52.330;9.104;2023-06-26T01:55:32;9.03;;;7.33;;
3131;SDS011;62090;52.330;9.104;2023-06-26T01:58:09;9.30;;;6.83;;
3131;SDS011;62090;52.330;9.104;2023-06-26T02:00:39;11.77;;;6.93;;
3131;SDS011;62090;52.330;9.104;2023-06-26T02:03:10;9.40;;;6.70;;
3131;SDS011;62090;52.330;9.104;2023-06-26T02:05:39;14.13;;;6.03;;
3131;SDS011;62090;52.330;9.104;2023-06-26T02:08:13;6.90;;;5.73;;
3131;SDS011;62090;52.330;9.104;2023-06-26T02:10:48;6.87;;;6.10;;
3131;SDS011;62090;52.330;9.104;2023-06-26T02:13:20;10.67;;;6.07;;
3131;SDS011;62090;52.330;9.104;2023-06-26T02:15:50;9.43;;;5.57;;
3131;SDS011;62090;52.330;9.104;2023-06-26T02:18:20;7.07;;;6.10;;
3131;SDS011;62090;52.330;9.104;2023-06-26T02:20:50;12.00;;;5.80;;
3131;SDS011;62090;52.330;9.104;2023-06-26T02:23:21;7.40;;;6.30;;
3131;SDS011;62090;52.330;9.104;2023-06-26T02:25:50;7.70;;;5.83;;
3131;SDS011;62090;52.330;9.104;2023-06-26T02:28:23;6.67;;;5.87;;
3131;SDS011;62090;52.330;9.104;2023-06-26T02:30:53;9.30;;;5.90;;
3131;SDS011;62090;52.330;9.104;2023-06-26T02:33:23;7.77;;;6.40;;
3131;SDS011;62090;52.330;9.104;2023-06-26T02:35:53;8.33;;;6.27;;
3131;SDS011;62090;52.330;9.104;2023-06-26T02:38:23;9.73;;;6.70;;
3131;SDS011;62090;52.330;9.104;2023-06-26T02:40:53;7.20;;;5.80;;
3131;SDS011;62090;52.330;9.104;2023-06-26T02:43:25;10.93;;;6.03;;
3131;SDS011;62090;52.330;9.104;2023-06-26T02:45:55;8.90;;;6.73;;
3131;SDS011;62090;52.330;9.104;2023-06-26T02:48:25;8.70;;;6.30;;
3131;SDS011;62090;52.330;9.104;2023-06-26T02:50:55;10.07;;;6.67;;
3131;SDS011;62090;52.330;9.104;2023-06-26T02:53:28;8.10;;;6.60;;
3131;SDS011;62090;52.330;9.104;2023-06-26T02:55:58;8.37;;;6.23;;
3131;SDS011;62090;52.330;9.104;2023-06-26T02:58:32;11.27;;;5.67;;
3131;SDS011;62090;52.330;9.104;2023-06-26T03:01:02;8.00;;;5.17;;
3131;SDS011;62090;52.330;9.104;2023-06-26T03:03:31;7.00;;;5.57;;
3131;SDS011;62090;52.330;9.104;2023-06-26T03:06:11;10.03;;;6.00;;
3131;SDS011;62090;52.330;9.104;2023-06-26T03:08:42;9.50;;;6.50;;
3131;SDS011;62090;52.330;9.104;2023-06-26T03:11:13;8.70;;;6.60;;
3131;SDS011;62090;52.330;9.104;2023-06-26T03:13:47;8.43;;;5.90;;
3131;SDS011;62090;52.330;9.104;2023-06-26T03:16:17;8.87;;;5.60;;
3131;SDS011;62090;52.330;9.104;2023-06-26T03:18:47;8.43;;;5.60;;
3131;SDS011;62090;52.330;9.104;2023-06-26T03:21:17;7.20;;;6.00;;
3131;SDS011;62090;52.330;9.104;2023-06-26T03:23:47;8.03;;;5.17;;
3131;SDS011;62090;52.330;9.104;2023-06-26T03:26:16;8.53;;;5.40;;
3131;SDS011;62090;52.330;9.104;2023-06-26T03:28:50;9.50;;;6.80;;
3131;SDS011;62090;52.330;9.104;2023-06-26T03:31:20;9.67;;;6.23;;
3131;SDS011;62090;52.330;9.104;2023-06-26T03:33:50;8.00;;;5.60;;
3131;SDS011;62090;52.330;9.104;2023-06-26T03:36:20;10.20;;;5.97;;
3131;SDS011;62090;52.330;9.104;2023-06-26T03:38:51;8.33;;;5.97;;
3131;SDS011;62090;52.330;9.104;2023-06-26T03:41:24;8.23;;;5.97;;
3131;SDS011;62090;52.330;9.104;2023-06-26T03:43:56;9.07;;;6.90;;
3131;SDS011;62090;52.330;9.104;2023-06-26T03:46:33;8.90;;;6.20;;
3131;SDS011;62090;52.330;9.104;2023-06-26T03:49:03;9.80;;;6.27;;
3131;SDS011;62090;52.330;9.104;2023-06-26T03:51:36;10.80;;;6.53;;
3131;SDS011;62090;52.330;9.104;2023-06-26T03:54:06;8.90;;;5.70;;
3131;SDS011;62090;52.330;9.104;2023-06-26T03:56:36;11.33;;;5.97;;
3131;SDS011;62090;52.330;9.104;2023-06-26T03:59:09;14.13;;;5.40;;
3131;SDS011;62090;52.330;9.104;2023-06-26T04:01:39;10.10;;;5.90;;
3131;SDS011;62090;52.330;9.104;2023-06-26T04:04:09;8.87;;;6.70;;
3131;SDS011;62090;52.330;9.104;2023-06-26T04:06:39;14.10;;;5.90;;
3131;SDS011;62090;52.330;9.104;2023-06-26T04:09:09;10.60;;;6.00;;
3131;SDS011;62090;52.330;9.104;2023-06-26T04:11:39;7.57;;;5.60;;
3131;SDS011;62090;52.330;9.104;2023-06-26T04:14:11;8.43;;;6.03;;
3131;SDS011;62090;52.330;9.104;2023-06-26T04:16:41;9.07;;;6.67;;
3131;SDS011;62090;52.330;9.104;2023-06-26T04:19:12;7.43;;;5.90;;
3131;SDS011;62090;52.330;9.104;2023-06-26T04:21:42;11.23;;;6.70;;
3131;SDS011;62090;52.330;9.104;2023-06-26T04:24:12;7.27;;;5.70;;
3131;SDS011;62090;52.330;9.104;2023-06-26T04:26:42;12.70;;;6.40;;
3131;SDS011;62090;52.330;9.104;2023-06-26T04:29:14;6.93;;;5.47;;
3131;SDS011;62090;52.330;9.104;2023-06-26T04:31:44;7.30;;;5.93;;
3131;SDS011;62090;52.330;9.104;2023-06-26T04:34:15;7.37;;;5.83;;
3131;SDS011;62090;52.330;9.104;2023-06-26T04:36:45;10.20;;;6.90;;
3131;SDS011;62090;52.330;9.104;2023-06-26T04:39:17;6.90;;;5.73;;
3131;SDS011;62090;52.330;9.104;2023-06-26T04:41:47;7.17;;;5.63;;
3131;SDS011;62090;52.330;9.104;2023-06-26T04:44:21;8.27;;;5.43;;
3131;SDS011;62090;52.330;9.104;2023-06-26T04:46:51;8.47;;;5.73;;
3131;SDS011;62090;52.330;9.104;2023-06-26T04:49:21;6.43;;;5.20;;
3131;SDS011;62090;52.330;9.104;2023-06-26T04:51:50;17.70;;;6.40;;
3131;SDS011;62090;52.330;9.104;2023-06-26T04:54:20;7.97;;;5.77;;
3131;SDS011;62090;52.330;9.104;2023-06-26T04:56:50;9.03;;;5.87;;
3131;SDS011;62090;52.330;9.104;2023-06-26T04:59:22;6.47;;;5.30;;
3131;SDS011;62090;52.330;9.104;2023-06-26T05:01:52;7.83;;;5.20;;
3131;SDS011;62090;52.330;9.104;2023-06-26T05:04:22;8.20;;;5.73;;
3131;SDS011;62090;52.330;9.104;2023-06-26T05:06:52;5.80;;;5.00;;
3131;SDS011;62090;52.330;9.104;2023-06-26T05:09:22;12.30;;;5.67;;
3131;SDS011;62090;52.330;9.104;2023-06-26T05:11:52;7.00;;;5.70;;
3131;SDS011;62090;52.330;9.104;2023-06-26T05:14:24;11.27;;;5.70;;
3131;SDS011;62090;52.330;9.104;2023-06-26T05:16:54;9.37;;;5.70;;
3131;SDS011;62090;52.330;9.104;2023-06-26T05:19:23;6.17;;;5.00;;
3131;SDS011;62090;52.330;9.104;2023-06-26T05:21:53;8.33;;;5.93;;
3131;SDS011;62090;52.330;9.104;2023-06-26T05:24:25;10.67;;;5.50;;
3131;SDS011;62090;52.330;9.104;2023-06-26T05:26:55;8.50;;;5.70;;
3131;SDS011;62090;52.330;9.104;2023-06-26T05:29:29;7.10;;;5.10;;
3131;SDS011;62090;52.330;9.104;2023-06-26T05:32:03;12.37;;;6.17;;
3131;SDS011;62090;52.330;9.104;2023-06-26T05:34:34;11.17;;;5.40;;
3131;SDS011;62090;52.330;9.104;2023-06-26T05:37:05;7.13;;;4.87;;
3131;SDS011;62090;52.330;9.104;2023-06-26T05:39:36;6.93;;;5.40;;
3131;SDS011;62090;52.330;9.104;2023-06-26T05:42:07;5.90;;;5.30;;
3131;SDS011;62090;52.330;9.104;2023-06-26T05:44:40;10.33;;;5.83;;
3131;SDS011;62090;52.330;9.104;2023-06-26T05:47:10;8.87;;;6.20;;
3131;SDS011;62090;52.330;9.104;2023-06-26T05:49:40;8.93;;;6.20;;
3131;SDS011;62090;52.330;9.104;2023-06-26T05:52:11;8.90;;;5.30;;
3131;SDS011;62090;52.330;9.104;2023-06-26T05:54:42;6.73;;;4.77;;
3131;SDS011;62090;52.330;9.104;2023-06-26T05:57:12;10.80;;;6.20;;
3131;SDS011;62090;52.330;9.104;2023-06-26T05:59:46;13.90;;;5.13;;
3131;SDS011;62090;52.330;9.104;2023-06-26T06:02:17;7.07;;;5.43;;
3131;SDS011;62090;52.330;9.104;2023-06-26T06:04:47;6.60;;;5.00;;
3131;SDS011;62090;52.330;9.104;2023-06-26T06:07:17;8.83;;;5.40;;
3131;SDS011;62090;52.330;9.104;2023-06-26T06:09:46;9.97;;;5.27;;
3131;SDS011;62090;52.330;9.104;2023-06-26T06:12:16;7.03;;;5.83;;
3131;SDS011;62090;52.330;9.104;2023-06-26T06:14:49;11.47;;;5.30;;
3131;SDS011;62090;52.330;9.104;2023-06-26T06:17:18;16.83;;;6.27;;
3131;SDS011;62090;52.330;9.104;2023-06-26T06:19:48;8.03;;;4.17;;
3131;SDS011;62090;52.330;9.104;2023-06-26T06:22:18;8.43;;;5.37;;
3131;SDS011;62090;52.330;9.104;2023-06-26T06:24:48;9.20;;;4.70;;
3131;SDS011;62090;52.330;9.104;2023-06-26T06:27:19;6.57;;;5.40;;
3131;SDS011;62090;52.330;9.104;2023-06-26T06:29:52;6.40;;;5.13;;
3131;SDS011;62090;52.330;9.104;2023-06-26T06:32:22;5.67;;;4.70;;
3131;SDS011;62090;52.330;9.104;2023-06-26T06:34:51;7.57;;;5.37;;
3131;SDS011;62090;52.330;9.104;2023-06-26T06:37:21;7.10;;;5.77;;
3131;SDS011;62090;52.330;9.104;2023-06-26T06:39:51;6.43;;;5.03;;
3131;SDS011;62090;52.330;9.104;2023-06-26T06:42:21;6.60;;;5.00;;
3131;SDS011;62090;52.330;9.104;2023-06-26T06:44:53;7.30;;;5.30;;
3131;SDS011;62090;52.330;9.104;2023-06-26T06:47:23;10.77;;;5.43;;
3131;SDS011;62090;52.330;9.104;2023-06-26T06:49:53;11.70;;;5.73;;
3131;SDS011;62090;52.330;9.104;2023-06-26T06:52:23;8.67;;;5.87;;
3131;SDS011;62090;52.330;9.104;2023-06-26T06:54:53;5.63;;;4.90;;
3131;SDS011;62090;52.330;9.104;2023-06-26T06:57:25;10.53;;;6.07;;
3131;SDS011;62090;52.330;9.104;2023-06-26T06:59:57;12.43;;;6.30;;
3131;SDS011;62090;52.330;9.104;2023-06-26T07:02:28;8.30;;;6.10;;
3131;SDS011;62090;52.330;9.104;2023-06-26T07:04:58;19.40;;;6.27;;
3131;SDS011;62090;52.330;9.104;2023-06-26T07:07:28;9.97;;;5.97;;
3131;SDS011;62090;52.330;9.104;2023-06-26T07:10:01;13.30;;;6.20;;
3131;SDS011;62090;52.330;9.104;2023-06-26T07:12:33;9.93;;;6.10;;
3131;SDS011;62090;52.330;9.104;2023-06-26T07:15:06;7.57;;;5.70;;
3131;SDS011;62090;52.330;9.104;2023-06-26T07:17:37;9.67;;;6.13;;
3131;SDS011;62090;52.330;9.104;2023-06-26T07:20:07;5.90;;;4.80;;
3131;SDS011;62090;52.330;9.104;2023-06-26T07:22:42;8.33;;;5.73;;
3131;SDS011;62090;52.330;9.104;2023-06-26T07:25:13;8.20;;;5.53;;
3131;SDS011;62090;52.330;9.104;2023-06-26T07:27:43;7.63;;;6.10;;
3131;SDS011;62090;52.330;9.104;2023-06-26T07:30:16;9.30;;;5.90;;
3131;SDS011;62090;52.330;9.104;2023-06-26T07:32:45;10.10;;;6.00;;
3131;SDS011;62090;52.330;9.104;2023-06-26T07:35:15;9.93;;;6.30;;
3131;SDS011;62090;52.330;9.104;2023-06-26T07:37:46;10.23;;;7.27;;
3131;SDS011;62090;52.330;9.104;2023-06-26T07:40:15;16.73;;;7.23;;
3131;SDS011;62090;52.330;9.104;2023-06-26T07:42:46;8.87;;;6.60;;
3131;SDS011;62090;52.330;9.104;2023-06-26T07:45:19;16.60;;;6.40;;
3131;SDS011;62090;52.330;9.104;2023-06-26T07:47:52;8.90;;;6.40;;
3131;SDS011;62090;52.330;9.104;2023-06-26T07:50:22;10.93;;;7.70;;
3131;SDS011;62090;52.330;9.104;2023-06-26T07:52:52;23.63;;;7.13;;
3131;SDS011;62090;52.330;9.104;2023-06-26T07:55:22;11.80;;;7.67;;
3131;SDS011;62090;52.330;9.104;2023-06-26T07:57:52;10.53;;;7.47;;
3131;SDS011;62090;52.330;9.104;2023-06-26T08:00:25;15.77;;;7.53;;
3131;SDS011;62090;52.330;9.104;2023-06-26T08:02:55;10.97;;;7.53;;
3131;SDS011;62090;52.330;9.104;2023-06-26T08:05:25;10.60;;;7.60;;
3131;SDS011;62090;52.330;9.104;2023-06-26T08:07:55;11.30;;;6.73;;
3131;SDS011;62090;52.330;9.104;2023-06-26T08:10:25;15.17;;;8.87;;
3131;SDS011;62090;52.330;9.104;2023-06-26T08:12:55;10.57;;;8.50;;
3131;SDS011;62090;52.330;9.104;2023-06-26T08:15:27;14.80;;;8.97;;
3131;SDS011;62090;52.330;9.104;2023-06-26T08:17:57;13.50;;;7.50;;
3131;SDS011;62090;52.330;9.104;2023-06-26T08:20:27;11.80;;;7.50;;
3131;SDS011;62090;52.330;9.104;2023-06-26T08:22:57;23.30;;;9.33;;
3131;SDS011;62090;52.330;9.104;2023-06-26T08:25:27;10.97;;;8.17;;
3131;SDS011;62090;52.330;9.104;2023-06-26T08:27:57;12.93;;;8.10;;
3131;SDS011;62090;52.330;9.104;2023-06-26T08:30:29;10.30;;;7.27;;
3131;SDS011;62090;52.330;9.104;2023-06-26T08:32:59;14.77;;;8.10;;
3131;SDS011;62090;52.330;9.104;2023-06-26T08:35:29;19.60;;;8.83;;
3131;SDS011;62090;52.330;9.104;2023-06-26T08:37:59;11.87;;;8.80;;
3131;SDS011;62090;52.330;9.104;2023-06-26T08:40:29;11.47;;;8.67;;
3131;SDS011;62090;52.330;9.104;2023-06-26T08:42:59;15.83;;;9.80;;
3131;SDS011;62090;52.330;9.104;2023-06-26T08:45:32;12.13;;;8.20;;
3131;SDS011;62090;52.330;9.104;2023-06-26T08:48:02;10.27;;;7.40;;
3131;SDS011;62090;52.330;9.104;2023-06-26T08:50:36;9.67;;;7.67;;
3131;SDS011;62090;52.330;9.104;2023-06-26T08:53:09;10.70;;;8.00;;
3131;SDS011;62090;52.330;9.104;2023-06-26T08:55:43;10.83;;;7.90;;
3131;SDS011;62090;52.330;9.104;2023-06-26T08:58:13;11.20;;;8.00;;
3131;SDS011;62090;52.330;9.104;2023-06-26T09:00:47;13.27;;;7.50;;
3131;SDS011;62090;52.330;9.104;2023-06-26T09:03:17;11.67;;;8.00;;
3131;SDS011;62090;52.330;9.104;2023-06-26T09:05:47;16.00;;;8.20;;
3131;SDS011;62090;52.330;9.104;2023-06-26T09:08:17;11.50;;;7.90;;
3131;SDS011;62090;52.330;9.104;2023-06-26T09:10:47;14.00;;;8.57;;
3131;SDS011;62090;52.330;9.104;2023-06-26T09:13:17;12.57;;;8.47;;
3131;SDS011;62090;52.330;9.104;2023-06-26T09:15:58;14.70;;;9.10;;
3131;SDS011;62090;52.330;9.104;2023-06-26T09:18:28;12.50;;;9.37;;
3131;SDS011;62090;52.330;9.104;2023-06-26T09:20:58;12.00;;;8.50;;
3131;SDS011;62090;52.330;9.104;2023-06-26T09:23:28;16.73;;;8.13;;
3131;SDS011;62090;52.330;9.104;2023-06-26T09:25:59;14.80;;;9.50;;
3131;SDS011;62090;52.330;9.104;2023-06-26T09:28:31;14.67;;;8.70;;
3131;SDS011;62090;52.330;9.104;2023-06-26T09:31:05;28.63;;;10.10;;
3131;SDS011;62090;52.330;9.104;2023-06-26T09:33:37;23.37;;;9.00;;
3131;SDS011;62090;52.330;9.104;2023-06-26T09:36:10;14.30;;;8.47;;
3131;SDS011;62090;52.330;9.104;2023-06-26T09:38:50;15.23;;;8.40;;
3131;SDS011;62090;52.330;9.104;2023-06-26T09:41:20;13.40;;;8.30;;
3131;SDS011;62090;52.330;9.104;2023-06-26T09:43:50;12.37;;;8.27;;
3131;SDS011;62090;52.330;9.104;2023-06-26T09:46:27;18.93;;;9.13;;
3131;SDS011;62090;52.330;9.104;2023-06-26T09:48:58;11.50;;;8.50;;
3131;SDS011;62090;52.330;9.104;2023-06-26T09:51:31;16.73;;;8.77;;
3131;SDS011;62090;52.330;9.104;2023-06-26T09:54:02;16.67;;;8.27;;
3131;SDS011;62090;52.330;9.104;2023-06-26T09:56:33;11.10;;;8.20;;
3131;SDS011;62090;52.330;9.104;2023-06-26T09:59:04;11.03;;;7.30;;
3131;SDS011;62090;52.330;9.104;2023-06-26T10:01:39;23.00;;;7.83;;
3131;SDS011;62090;52.330;9.104;2023-06-26T10:04:11;11.57;;;7.27;;
3131;SDS011;62090;52.330;9.104;2023-06-26T10:06:43;13.73;;;7.07;;
3131;SDS011;62090;52.330;9.104;2023-06-26T10:09:16;11.93;;;7.27;;
3131;SDS011;62090;52.330;9.104;2023-06-26T10:11:49;13.50;;;7.17;;
3131;SDS011;62090;52.330;9.104;2023-06-26T10:14:23;10.47;;;7.27;;
3131;SDS011;62090;52.330;9.104;2023-06-26T10:17:00;14.13;;;6.57;;
3131;SDS011;62090;52.330;9.104;2023-06-26T10:19:33;13.20;;;7.27;;
3131;SDS011;62090;52.330;9.104;2023-06-26T10:22:05;15.97;;;7.97;;
3131;SDS011;62090;52.330;9.104;2023-06-26T10:24:36;14.57;;;6.80;;
3131;SDS011;62090;52.330;9.104;2023-06-26T10:27:10;13.63;;;7.40;;
3131;SDS011;62090;52.330;9.104;2023-06-26T10:29:44;10.90;;;6.93;;
3131;SDS011;62090;52.330;9.104;2023-06-26T10:32:19;11.03;;;6.70;;
3131;SDS011;62090;52.330;9.104;2023-06-26T10:34:50;12.43;;;7.47;;
3131;SDS011;62090;52.330;9.104;2023-06-26T10:37:21;15.70;;;7.23;;
3131;SDS011;62090;52.330;9.104;2023-06-26T10:40:10;14.30;;;6.80;;
3131;SDS011;62090;52.330;9.104;2023-06-26T10:42:41;9.83;;;6.53;;
3131;SDS011;62090;52.330;9.104;2023-06-26T10:45:13;13.50;;;6.43;;
3131;SDS011;62090;52.330;9.104;2023-06-26T10:47:48;20.73;;;7.17;;
3131;SDS011;62090;52.330;9.104;2023-06-26T10:50:23;9.07;;;6.80;;
3131;SDS011;62090;52.330;9.104;2023-06-26T10:53:07;16.83;;;6.40;;
3131;SDS011;62090;52.330;9.104;2023-06-26T10:55:41;12.67;;;6.43;;
3131;SDS011;62090;52.330;9.104;2023-06-26T11:04:04;13.10;;;6.43;;
3131;SDS011;62090;52.330;9.104;2023-06-26T11:06:35;10.33;;;6.60;;
3131;SDS011;62090;52.330;9.104;2023-06-26T11:09:06;9.60;;;6.40;;
3131;SDS011;62090;52.330;9.104;2023-06-26T11:14:34;12.23;;;6.20;;
3131;SDS011;62090;52.330;9.104;2023-06-26T11:17:05;15.23;;;6.13;;
3131;SDS011;62090;52.330;9.104;2023-06-26T11:19:38;12.00;;;5.63;;
3131;SDS011;62090;52.330;9.104;2023-06-26T11:22:12;10.03;;;6.40;;
3131;SDS011;62090;52.330;9.104;2023-06-26T11:24:44;8.03;;;5.93;;
3131;SDS011;62090;52.330;9.104;2023-06-26T11:27:14;13.87;;;6.27;;
3131;SDS011;62090;52.330;9.104;2023-06-26T11:29:47;10.77;;;6.20;;
3131;SDS011;62090;52.330;9.104;2023-06-26T11:32:17;9.40;;;5.00;;
3131;SDS011;62090;52.330;9.104;2023-06-26T11:34:50;7.50;;;4.50;;
3131;SDS011;62090;52.330;9.104;2023-06-26T11:37:20;8.60;;;3.80;;
3131;SDS011;62090;52.330;9.104;2023-06-26T11:39:51;5.07;;;3.50;;
3131;SDS011;62090;52.330;9.104;2023-06-26T11:42:21;7.07;;;3.70;;
3131;SDS011;62090;52.330;9.104;2023-06-26T11:44:51;8.67;;;3.70;;
3131;SDS011;62090;52.330;9.104;2023-06-26T11:47:22;10.13;;;4.20;;
3131;SDS011;62090;52.330;9.104;2023-06-26T11:49:55;6.63;;;3.50;;
3131;SDS011;62090;52.330;9.104;2023-06-26T11:52:24;12.93;;;3.83;;
3131;SDS011;62090;52.330;9.104;2023-06-26T11:54:54;6.17;;;3.10;;
3131;SDS011;62090;52.330;9.104;2023-06-26T11:57:24;8.07;;;3.30;;
3131;SDS011;62090;52.330;9.104;2023-06-26T11:59:54;6.40;;;2.93;;
3131;SDS011;62090;52.330;9.104;2023-06-26T12:02:24;10.43;;;3.00;;
3131;SDS011;62090;52.330;9.104;2023-06-26T12:04:56;6.37;;;2.70;;
3131;SDS011;62090;52.330;9.104;2023-06-26T12:07:26;5.20;;;2.60;;
3131;SDS011;62090;52.330;9.104;2023-06-26T12:09:57;5.53;;;2.60;;
3131;SDS011;62090;52.330;9.104;2023-06-26T12:12:28;5.10;;;2.80;;
3131;SDS011;62090;52.330;9.104;2023-06-26T12:14:58;7.60;;;2.50;;
3131;SDS011;62090;52.330;9.104;2023-06-26T12:17:29;6.83;;;2.90;;
3131;SDS011;62090;52.330;9.104;2023-06-26T12:20:02;5.70;;;2.77;;
3131;SDS011;62090;52.330;9.104;2023-06-26T12:22:34;8.23;;;2.60;;
3131;SDS011;62090;52.330;9.104;2023-06-26T12:25:07;8.03;;;2.43;;
3131;SDS011;62090;52.330;9.104;2023-06-26T12:27:37;11.40;;;2.90;;
3131;SDS011;62090;52.330;9.104;2023-06-26T12:30:07;6.40;;;2.70;;
3131;SDS011;62090;52.330;9.104;2023-06-26T12:32:37;5.50;;;2.43;;
3131;SDS011;62090;52.330;9.104;2023-06-26T12:35:10;5.27;;;2.53;;
3131;SDS011;62090;52.330;9.104;2023-06-26T12:37:41;6.50;;;2.50;;
3131;SDS011;62090;52.330;9.104;2023-06-26T12:40:16;7.83;;;3.37;;
3131;SDS011;62090;52.330;9.104;2023-06-26T12:42:49;3.70;;;2.20;;
3131;SDS011;62090;52.330;9.104;2023-06-26T12:45:19;4.30;;;2.30;;
3131;SDS011;62090;52.330;9.104;2023-06-26T12:48:06;3.97;;;2.20;;
3131;SDS011;62090;52.330;9.104;2023-06-26T12:50:42;4.83;;;2.03;;
3131;SDS011;62090;52.330;9.104;2023-06-26T12:53:14;4.03;;;2.70;;
3131;SDS011;62090;52.330;9.104;2023-06-26T12:55:44;7.17;;;2.47;;
3131;SDS011;62090;52.330;9.104;2023-06-26T12:58:14;5.47;;;2.20;;
3131;SDS011;62090;52.330;9.104;2023-06-26T13:00:44;7.83;;;2.50;;
3131;SDS011;62090;52.330;9.104;2023-06-26T13:03:14;8.53;;;2.63;;
3131;SDS011;62090;52.330;9.104;2023-06-26T13:05:46;5.13;;;2.47;;
3131;SDS011;62090;52.330;9.104;2023-06-26T13:08:16;9.80;;;2.97;;
3131;SDS011;62090;52.330;9.104;2023-06-26T13:10:46;3.07;;;2.10;;
3131;SDS011;62090;52.330;9.104;2023-06-26T13:13:16;8.30;;;2.20;;
3131;SDS011;62090;52.330;9.104;2023-06-26T13:15:46;6.10;;;1.63;;
3131;SDS011;62090;52.330;9.104;2023-06-26T13:18:16;7.23;;;2.50;;
3131;SDS011;62090;52.330;9.104;2023-06-26T13:20:49;8.53;;;2.90;;
3131;SDS011;62090;52.330;9.104;2023-06-26T13:23:18;10.90;;;2.70;;
3131;SDS011;62090;52.330;9.104;2023-06-26T13:25:48;8.30;;;2.90;;
3131;SDS011;62090;52.330;9.104;2023-06-26T13:28:18;5.13;;;2.10;;
3131;SDS011;62090;52.330;9.104;2023-06-26T13:30:49;4.70;;;2.60;;
3131;SDS011;62090;52.330;9.104;2023-06-26T13:33:19;4.10;;;2.00;;
3131;SDS011;62090;52.330;9.104;2023-06-26T13:35:54;5.70;;;2.63;;
3131;SDS011;62090;52.330;9.104;2023-06-26T13:38:24;3.87;;;2.67;;
3131;SDS011;62090;52.330;9.104;2023-06-26T13:40:54;9.30;;;2.23;;
3131;SDS011;62090;52.330;9.104;2023-06-26T13:43:26;5.27;;;2.60;;
3131;SDS011;62090;52.330;9.104;2023-06-26T13:45:57;2.50;;;1.80;;
3131;SDS011;62090;52.330;9.104;2023-06-26T13:48:28;14.50;;;2.70;;
3131;SDS011;62090;52.330;9.104;2023-06-26T13:51:01;5.70;;;1.90;;
3131;SDS011;62090;52.330;9.104;2023-06-26T13:53:31;3.30;;;2.03;;
3131;SDS011;62090;52.330;9.104;2023-06-26T13:56:01;8.48;;;2.60;;
3131;SDS011;62090;52.330;9.104;2023-06-26T13:58:31;4.13;;;2.23;;
3131;SDS011;62090;52.330;9.104;2023-06-26T14:01:01;7.00;;;2.13;;
3131;SDS011;62090;52.330;9.104;2023-06-26T14:03:32;8.93;;;2.17;;
3131;SDS011;62090;52.330;9.104;2023-06-26T14:06:04;16.97;;;2.50;;
3131;SDS011;62090;52.330;9.104;2023-06-26T14:08:34;6.60;;;2.47;;
3131;SDS011;62090;52.330;9.104;2023-06-26T14:11:04;4.20;;;2.17;;
3131;SDS011;62090;52.330;9.104;2023-06-26T14:13:34;5.70;;;2.43;;
3131;SDS011;62090;52.330;9.104;2023-06-26T14:16:04;8.53;;;2.00;;
3131;SDS011;62090;52.330;9.104;2023-06-26T14:18:34;7.87;;;2.77;;
3131;SDS011;62090;52.330;9.104;2023-06-26T14:21:06;3.20;;;1.87;;
3131;SDS011;62090;52.330;9.104;2023-06-26T14:23:36;7.10;;;2.73;;
3131;SDS011;62090;52.330;9.104;2023-06-26T14:26:06;6.00;;;1.93;;
3131;SDS011;62090;52.330;9.104;2023-06-26T14:28:37;6.80;;;2.23;;
3131;SDS011;62090;52.330;9.104;2023-06-26T14:31:07;16.47;;;3.07;;
3131;SDS011;62090;52.330;9.104;2023-06-26T14:33:37;10.93;;;2.10;;
3131;SDS011;62090;52.330;9.104;2023-06-26T14:36:10;9.90;;;2.90;;
3131;SDS011;62090;52.330;9.104;2023-06-26T14:38:40;9.17;;;3.00;;
3131;SDS011;62090;52.330;9.104;2023-06-26T14:41:10;3.83;;;2.30;;
3131;SDS011;62090;52.330;9.104;2023-06-26T14:43:41;7.10;;;2.03;;
3131;SDS011;62090;52.330;9.104;2023-06-26T14:46:12;3.03;;;1.90;;
3131;SDS011;62090;52.330;9.104;2023-06-26T14:48:43;8.33;;;2.17;;
3131;SDS011;62090;52.330;9.104;2023-06-26T14:51:15;7.73;;;2.63;;
3131;SDS011;62090;52.330;9.104;2023-06-26T14:53:45;9.43;;;2.13;;
3131;SDS011;62090;52.330;9.104;2023-06-26T14:56:15;4.90;;;1.70;;
3131;SDS011;62090;52.330;9.104;2023-06-26T14:58:45;9.10;;;2.17;;
3131;SDS011;62090;52.330;9.104;2023-06-26T15:01:15;5.17;;;2.00;;
3131;SDS011;62090;52.330;9.104;2023-06-26T15:03:46;6.57;;;2.20;;
3131;SDS011;62090;52.330;9.104;2023-06-26T15:06:18;7.30;;;2.87;;
3131;SDS011;62090;52.330;9.104;2023-06-26T15:08:48;7.20;;;2.63;;
3131;SDS011;62090;52.330;9.104;2023-06-26T15:11:18;11.03;;;2.00;;
3131;SDS011;62090;52.330;9.104;2023-06-26T15:13:48;5.67;;;2.50;;
3131;SDS011;62090;52.330;9.104;2023-06-26T15:16:18;11.50;;;2.20;;
3131;SDS011;62090;52.330;9.104;2023-06-26T15:18:48;3.50;;;1.90;;
3131;SDS011;62090;52.330;9.104;2023-06-26T15:21:20;4.23;;;1.80;;
3131;SDS011;62090;52.330;9.104;2023-06-26T15:23:50;5.47;;;1.50;;
3131;SDS011;62090;52.330;9.104;2023-06-26T15:26:20;4.50;;;1.83;;
3131;SDS011;62090;52.330;9.104;2023-06-26T15:28:50;14.23;;;2.40;;